sensor_id;sensor_type;location;lat;lon;timestamp;P1;durP1;ratioP1;P2;durP2;ratioP2
45764;SDS011;31474;45.332;10.230;2022-09-17T00:01:16;4.40;;;1.77;;
45764;SDS011;31474;45.332;10.230;2022-09-17T00:03:47;2.40;;;1.83;;
45764;SDS011;31474;45.332;10.230;2022-09-17T00:06:14;3.03;;;1.20;;
45764;SDS011;31474;45.332;10.230;2022-09-17T00:08:40;1.13;;;1.00;;
45764;SDS011;31474;45.332;10.230;2022-09-17T00:11:10;2.03;;;1.05;;
45764;SDS011;31474;45.332;10.230;2022-09-17T00:13:41;6.97;;;1.30;;
45764;SDS011;31474;45.332;10.230;2022-09-17T00:16:08;2.53;;;0.90;;
45764;SDS011;31474;45.332;10.230;2022-09-17T00:18:34;2.20;;;0.90;;
45764;SDS011;31474;45.332;10.230;2022-09-17T00:21:04;2.10;;;1.10;;
45764;SDS011;31474;45.332;10.230;2022-09-17T00:23:30;4.25;;;0.95;;
45764;SDS011;31474;45.332;10.230;2022-09-17T00:25:56;1.40;;;1.10;;
45764;SDS011;31474;45.332;10.230;2022-09-17T00:28:23;1.83;;;1.10;;
45764;SDS011;31474;45.332;10.230;2022-09-17T00:30:48;1.27;;;0.82;;
45764;SDS011;31474;45.332;10.230;2022-09-17T00:33:14;1.63;;;1.02;;
45764;SDS011;31474;45.332;10.230;2022-09-17T00:35:42;1.35;;;1.10;;
45764;SDS011;31474;45.332;10.230;2022-09-17T00:38:08;2.00;;;1.30;;
45764;SDS011;31474;45.332;10.230;2022-09-17T00:40:34;2.47;;;0.90;;
45764;SDS011;31474;45.332;10.230;2022-09-17T00:43:02;1.45;;;1.08;;
45764;SDS011;31474;45.332;10.230;2022-09-17T00:45:28;1.60;;;1.00;;
45764;SDS011;31474;45.332;10.230;2022-09-17T00:47:57;1.33;;;1.23;;
45764;SDS011;31474;45.332;10.230;2022-09-17T00:50:29;1.60;;;0.90;;
45764;SDS011;31474;45.332;10.230;2022-09-17T00:53:05;1.90;;;1.17;;
45764;SDS011;31474;45.332;10.230;2022-09-17T00:55:41;1.10;;;0.70;;
45764;SDS011;31474;45.332;10.230;2022-09-17T00:58:10;3.10;;;0.52;;
45764;SDS011;31474;45.332;10.230;2022-09-17T01:00:39;1.77;;;0.65;;
45764;SDS011;31474;45.332;10.230;2022-09-17T01:03:05;1.83;;;1.00;;
45764;SDS011;31474;45.332;10.230;2022-09-17T01:11:28;1.10;;;0.73;;
45764;SDS011;31474;45.332;10.230;2022-09-17T01:14:00;1.80;;;0.82;;
45764;SDS011;31474;45.332;10.230;2022-09-17T01:22:06;0.90;;;0.70;;
45764;SDS011;31474;45.332;10.230;2022-09-17T01:30:19;1.95;;;0.60;;
45764;SDS011;31474;45.332;10.230;2022-09-17T01:33:47;1.70;;;0.80;;
45764;SDS011;31474;45.332;10.230;2022-09-17T01:36:08;1.23;;;0.50;;
45764;SDS011;31474;45.332;10.230;2022-09-17T01:41:13;0.93;;;0.85;;
45764;SDS011;31474;45.332;10.230;2022-09-17T01:46:28;0.52;;;0.28;;
45764;SDS011;31474;45.332;10.230;2022-09-17T01:49:04;1.25;;;0.30;;
45764;SDS011;31474;45.332;10.230;2022-09-17T01:51:35;0.82;;;0.47;;
45764;SDS011;31474;45.332;10.230;2022-09-17T01:54:15;2.35;;;0.40;;
45764;SDS011;31474;45.332;10.230;2022-09-17T01:56:51;2.97;;;0.30;;
45764;SDS011;31474;45.332;10.230;2022-09-17T01:59:23;0.40;;;0.20;;
45764;SDS011;31474;45.332;10.230;2022-09-17T02:01:55;0.80;;;0.20;;
45764;SDS011;31474;45.332;10.230;2022-09-17T02:06:59;0.68;;;0.30;;
45764;SDS011;31474;45.332;10.230;2022-09-17T02:09:40;0.55;;;0.40;;
45764;SDS011;31474;45.332;10.230;2022-09-17T02:12:11;3.03;;;0.60;;
45764;SDS011;31474;45.332;10.230;2022-09-17T02:14:49;0.47;;;0.22;;
45764;SDS011;31474;45.332;10.230;2022-09-17T02:17:22;1.58;;;0.52;;
45764;SDS011;31474;45.332;10.230;2022-09-17T02:19:56;1.40;;;0.60;;
45764;SDS011;31474;45.332;10.230;2022-09-17T02:22:42;0.50;;;0.30;;
45764;SDS011;31474;45.332;10.230;2022-09-17T02:25:14;0.35;;;0.25;;
45764;SDS011;31474;45.332;10.230;2022-09-17T02:30:17;0.17;;;0.10;;
45764;SDS011;31474;45.332;10.230;2022-09-17T02:32:43;4.72;;;0.82;;
45764;SDS011;31474;45.332;10.230;2022-09-17T02:35:09;0.70;;;0.30;;
45764;SDS011;31474;45.332;10.230;2022-09-17T02:37:37;0.20;;;0.17;;
45764;SDS011;31474;45.332;10.230;2022-09-17T02:40:04;1.42;;;0.38;;
45764;SDS011;31474;45.332;10.230;2022-09-17T02:42:33;0.95;;;0.95;;
45764;SDS011;31474;45.332;10.230;2022-09-17T02:50:48;2.10;;;0.28;;
45764;SDS011;31474;45.332;10.230;2022-09-17T02:59:28;0.73;;;0.43;;
45764;SDS011;31474;45.332;10.230;2022-09-17T03:05:18;1.02;;;0.28;;
45764;SDS011;31474;45.332;10.230;2022-09-17T03:07:46;0.88;;;0.20;;
45764;SDS011;31474;45.332;10.230;2022-09-17T03:10:12;3.60;;;0.30;;
45764;SDS011;31474;45.332;10.230;2022-09-17T03:12:38;0.75;;;0.30;;
45764;SDS011;31474;45.332;10.230;2022-09-17T03:15:05;1.13;;;0.20;;
45764;SDS011;31474;45.332;10.230;2022-09-17T03:17:31;0.35;;;0.20;;
45764;SDS011;31474;45.332;10.230;2022-09-17T03:19:56;0.10;;;0.10;;
45764;SDS011;31474;45.332;10.230;2022-09-17T03:22:22;0.80;;;0.25;;
45764;SDS011;31474;45.332;10.230;2022-09-17T03:24:48;1.00;;;0.20;;
45764;SDS011;31474;45.332;10.230;2022-09-17T03:27:14;0.50;;;0.20;;
45764;SDS011;31474;45.332;10.230;2022-09-17T03:29:40;0.20;;;0.20;;
45764;SDS011;31474;45.332;10.230;2022-09-17T03:32:05;1.02;;;0.20;;
45764;SDS011;31474;45.332;10.230;2022-09-17T03:34:31;2.15;;;0.20;;
45764;SDS011;31474;45.332;10.230;2022-09-17T03:36:57;0.35;;;0.28;;
45764;SDS011;31474;45.332;10.230;2022-09-17T03:39:22;3.05;;;1.10;;
45764;SDS011;31474;45.332;10.230;2022-09-17T03:41:48;0.40;;;0.20;;
45764;SDS011;31474;45.332;10.230;2022-09-17T03:44:15;0.30;;;0.30;;
45764;SDS011;31474;45.332;10.230;2022-09-17T03:46:42;0.28;;;0.20;;
45764;SDS011;31474;45.332;10.230;2022-09-17T03:49:08;0.30;;;0.13;;
45764;SDS011;31474;45.332;10.230;2022-09-17T03:51:33;0.75;;;0.30;;
45764;SDS011;31474;45.332;10.230;2022-09-17T03:53:59;0.30;;;0.20;;
45764;SDS011;31474;45.332;10.230;2022-09-17T03:56:26;1.20;;;0.40;;
45764;SDS011;31474;45.332;10.230;2022-09-17T03:58:55;1.50;;;0.20;;
45764;SDS011;31474;45.332;10.230;2022-09-17T04:01:22;0.82;;;0.20;;
45764;SDS011;31474;45.332;10.230;2022-09-17T04:03:47;0.40;;;0.20;;
45764;SDS011;31474;45.332;10.230;2022-09-17T04:06:13;0.65;;;0.20;;
45764;SDS011;31474;45.332;10.230;2022-09-17T04:08:39;0.75;;;0.30;;
45764;SDS011;31474;45.332;10.230;2022-09-17T04:11:04;0.47;;;0.20;;
45764;SDS011;31474;45.332;10.230;2022-09-17T04:13:31;0.55;;;0.30;;
45764;SDS011;31474;45.332;10.230;2022-09-17T04:15:57;1.05;;;0.40;;
45764;SDS011;31474;45.332;10.230;2022-09-17T04:18:23;0.50;;;0.30;;
45764;SDS011;31474;45.332;10.230;2022-09-17T04:20:49;0.43;;;0.32;;
45764;SDS011;31474;45.332;10.230;2022-09-17T04:23:15;1.83;;;0.70;;
45764;SDS011;31474;45.332;10.230;2022-09-17T04:25:41;7.05;;;3.13;;
45764;SDS011;31474;45.332;10.230;2022-09-17T04:28:07;8.02;;;4.07;;
45764;SDS011;31474;45.332;10.230;2022-09-17T04:30:33;5.32;;;2.42;;
45764;SDS011;31474;45.332;10.230;2022-09-17T04:32:58;1.48;;;0.88;;
45764;SDS011;31474;45.332;10.230;2022-09-17T04:35:24;2.80;;;0.40;;
45764;SDS011;31474;45.332;10.230;2022-09-17T04:37:53;0.98;;;0.43;;
45764;SDS011;31474;45.332;10.230;2022-09-17T04:40:20;0.38;;;0.20;;
45764;SDS011;31474;45.332;10.230;2022-09-17T04:42:47;0.28;;;0.28;;
45764;SDS011;31474;45.332;10.230;2022-09-17T04:45:13;0.73;;;0.20;;
45764;SDS011;31474;45.332;10.230;2022-09-17T04:47:39;0.25;;;0.20;;
45764;SDS011;31474;45.332;10.230;2022-09-17T04:50:05;0.32;;;0.20;;
45764;SDS011;31474;45.332;10.230;2022-09-17T04:52:31;0.98;;;0.32;;
45764;SDS011;31474;45.332;10.230;2022-09-17T04:54:57;0.88;;;0.30;;
45764;SDS011;31474;45.332;10.230;2022-09-17T04:57:23;0.75;;;0.38;;
45764;SDS011;31474;45.332;10.230;2022-09-17T04:59:49;0.93;;;0.55;;
45764;SDS011;31474;45.332;10.230;2022-09-17T05:02:15;0.40;;;0.20;;
45764;SDS011;31474;45.332;10.230;2022-09-17T05:04:41;0.93;;;0.32;;
45764;SDS011;31474;45.332;10.230;2022-09-17T05:07:07;2.28;;;0.20;;
45764;SDS011;31474;45.332;10.230;2022-09-17T05:09:33;0.77;;;0.20;;
45764;SDS011;31474;45.332;10.230;2022-09-17T05:11:58;0.35;;;0.20;;
45764;SDS011;31474;45.332;10.230;2022-09-17T05:14:24;4.57;;;0.95;;
45764;SDS011;31474;45.332;10.230;2022-09-17T05:16:50;0.13;;;0.10;;
45764;SDS011;31474;45.332;10.230;2022-09-17T05:19:15;1.02;;;0.40;;
45764;SDS011;31474;45.332;10.230;2022-09-17T05:21:41;0.30;;;0.17;;
45764;SDS011;31474;45.332;10.230;2022-09-17T05:24:07;0.50;;;0.20;;
45764;SDS011;31474;45.332;10.230;2022-09-17T05:26:33;0.50;;;0.13;;
45764;SDS011;31474;45.332;10.230;2022-09-17T05:28:58;3.40;;;0.60;;
45764;SDS011;31474;45.332;10.230;2022-09-17T05:31:24;10.98;;;0.60;;
45764;SDS011;31474;45.332;10.230;2022-09-17T05:33:50;1.08;;;0.32;;
45764;SDS011;31474;45.332;10.230;2022-09-17T05:36:15;9.65;;;0.40;;
45764;SDS011;31474;45.332;10.230;2022-09-17T05:38:41;1.33;;;0.20;;
45764;SDS011;31474;45.332;10.230;2022-09-17T05:41:07;0.68;;;0.30;;
45764;SDS011;31474;45.332;10.230;2022-09-17T05:43:32;2.95;;;0.52;;
45764;SDS011;31474;45.332;10.230;2022-09-17T05:46:02;1.17;;;0.22;;
45764;SDS011;31474;45.332;10.230;2022-09-17T05:48:28;0.50;;;0.20;;
45764;SDS011;31474;45.332;10.230;2022-09-17T05:50:54;1.08;;;0.25;;
45764;SDS011;31474;45.332;10.230;2022-09-17T05:53:20;3.60;;;1.38;;
45764;SDS011;31474;45.332;10.230;2022-09-17T05:55:45;3.40;;;0.65;;
45764;SDS011;31474;45.332;10.230;2022-09-17T05:58:12;4.95;;;0.50;;
45764;SDS011;31474;45.332;10.230;2022-09-17T06:00:42;8.27;;;0.52;;
45764;SDS011;31474;45.332;10.230;2022-09-17T06:03:12;4.82;;;1.30;;
45764;SDS011;31474;45.332;10.230;2022-09-17T06:05:39;8.52;;;1.20;;
45764;SDS011;31474;45.332;10.230;2022-09-17T06:08:05;1.33;;;0.45;;
45764;SDS011;31474;45.332;10.230;2022-09-17T06:10:31;2.75;;;0.60;;
45764;SDS011;31474;45.332;10.230;2022-09-17T06:13:00;3.20;;;0.50;;
45764;SDS011;31474;45.332;10.230;2022-09-17T06:15:26;5.50;;;0.50;;
45764;SDS011;31474;45.332;10.230;2022-09-17T06:17:52;1.77;;;0.45;;
45764;SDS011;31474;45.332;10.230;2022-09-17T06:20:18;2.22;;;0.50;;
45764;SDS011;31474;45.332;10.230;2022-09-17T06:22:44;0.70;;;0.40;;
45764;SDS011;31474;45.332;10.230;2022-09-17T06:25:10;1.60;;;0.20;;
45764;SDS011;31474;45.332;10.230;2022-09-17T06:27:36;0.80;;;0.38;;
45764;SDS011;31474;45.332;10.230;2022-09-17T06:30:02;1.15;;;0.55;;
45764;SDS011;31474;45.332;10.230;2022-09-17T06:32:28;2.63;;;0.43;;
45764;SDS011;31474;45.332;10.230;2022-09-17T06:34:54;1.30;;;0.50;;
45764;SDS011;31474;45.332;10.230;2022-09-17T06:37:27;1.92;;;0.60;;
45764;SDS011;31474;45.332;10.230;2022-09-17T06:39:54;1.80;;;0.47;;
45764;SDS011;31474;45.332;10.230;2022-09-17T06:42:20;0.75;;;0.40;;
45764;SDS011;31474;45.332;10.230;2022-09-17T06:44:46;2.80;;;0.30;;
45764;SDS011;31474;45.332;10.230;2022-09-17T06:47:12;4.47;;;0.40;;
45764;SDS011;31474;45.332;10.230;2022-09-17T06:49:37;2.05;;;0.28;;
45764;SDS011;31474;45.332;10.230;2022-09-17T06:52:03;0.40;;;0.30;;
45764;SDS011;31474;45.332;10.230;2022-09-17T06:54:29;1.50;;;0.38;;
45764;SDS011;31474;45.332;10.230;2022-09-17T06:56:55;0.45;;;0.22;;
45764;SDS011;31474;45.332;10.230;2022-09-17T06:59:20;0.20;;;0.20;;
45764;SDS011;31474;45.332;10.230;2022-09-17T07:01:46;1.70;;;0.35;;
45764;SDS011;31474;45.332;10.230;2022-09-17T07:04:12;2.28;;;0.52;;
45764;SDS011;31474;45.332;10.230;2022-09-17T07:06:38;0.47;;;0.22;;
45764;SDS011;31474;45.332;10.230;2022-09-17T07:09:03;0.30;;;0.20;;
45764;SDS011;31474;45.332;10.230;2022-09-17T07:11:31;0.68;;;0.28;;
45764;SDS011;31474;45.332;10.230;2022-09-17T07:13:57;0.82;;;0.38;;
45764;SDS011;31474;45.332;10.230;2022-09-17T07:16:23;0.60;;;0.25;;
45764;SDS011;31474;45.332;10.230;2022-09-17T07:18:50;0.55;;;0.30;;
45764;SDS011;31474;45.332;10.230;2022-09-17T07:21:16;0.80;;;0.25;;
45764;SDS011;31474;45.332;10.230;2022-09-17T07:23:42;0.35;;;0.25;;
45764;SDS011;31474;45.332;10.230;2022-09-17T07:26:13;1.55;;;0.43;;
45764;SDS011;31474;45.332;10.230;2022-09-17T07:28:40;0.75;;;0.40;;
45764;SDS011;31474;45.332;10.230;2022-09-17T07:31:07;0.60;;;0.30;;
45764;SDS011;31474;45.332;10.230;2022-09-17T07:33:34;0.75;;;0.10;;
45764;SDS011;31474;45.332;10.230;2022-09-17T07:36:02;0.63;;;0.20;;
45764;SDS011;31474;45.332;10.230;2022-09-17T07:38:32;1.17;;;0.30;;
45764;SDS011;31474;45.332;10.230;2022-09-17T07:43:26;0.30;;;0.10;;
45764;SDS011;31474;45.332;10.230;2022-09-17T07:45:55;1.00;;;0.30;;
45764;SDS011;31474;45.332;10.230;2022-09-17T07:48:22;0.70;;;0.20;;
45764;SDS011;31474;45.332;10.230;2022-09-17T07:50:48;0.70;;;0.30;;
45764;SDS011;31474;45.332;10.230;2022-09-17T07:53:14;0.60;;;0.20;;
45764;SDS011;31474;45.332;10.230;2022-09-17T07:55:40;1.23;;;0.25;;
45764;SDS011;31474;45.332;10.230;2022-09-17T07:58:06;0.38;;;0.20;;
45764;SDS011;31474;45.332;10.230;2022-09-17T08:00:32;2.08;;;0.10;;
45764;SDS011;31474;45.332;10.230;2022-09-17T08:02:58;0.52;;;0.40;;
45764;SDS011;31474;45.332;10.230;2022-09-17T08:05:24;0.73;;;0.20;;
45764;SDS011;31474;45.332;10.230;2022-09-17T08:07:50;1.02;;;0.30;;
45764;SDS011;31474;45.332;10.230;2022-09-17T08:10:17;0.35;;;0.20;;
45764;SDS011;31474;45.332;10.230;2022-09-17T08:12:46;0.30;;;0.22;;
45764;SDS011;31474;45.332;10.230;2022-09-17T08:15:18;0.52;;;0.20;;
45764;SDS011;31474;45.332;10.230;2022-09-17T08:17:46;0.47;;;0.20;;
45764;SDS011;31474;45.332;10.230;2022-09-17T08:20:13;0.20;;;0.20;;
45764;SDS011;31474;45.332;10.230;2022-09-17T08:22:39;1.70;;;0.38;;
45764;SDS011;31474;45.332;10.230;2022-09-17T08:25:06;0.25;;;0.20;;
45764;SDS011;31474;45.332;10.230;2022-09-17T08:27:33;0.43;;;0.30;;
45764;SDS011;31474;45.332;10.230;2022-09-17T08:29:59;0.40;;;0.25;;
45764;SDS011;31474;45.332;10.230;2022-09-17T08:32:24;0.32;;;0.20;;
45764;SDS011;31474;45.332;10.230;2022-09-17T08:34:50;0.90;;;0.30;;
45764;SDS011;31474;45.332;10.230;2022-09-17T08:37:18;0.52;;;0.30;;
45764;SDS011;31474;45.332;10.230;2022-09-17T08:39:44;0.50;;;0.17;;
45764;SDS011;31474;45.332;10.230;2022-09-17T08:44:55;0.80;;;0.30;;
45764;SDS011;31474;45.332;10.230;2022-09-17T08:53:06;0.15;;;0.10;;
45764;SDS011;31474;45.332;10.230;2022-09-17T08:55:31;1.40;;;0.20;;
45764;SDS011;31474;45.332;10.230;2022-09-17T09:06:06;0.38;;;0.20;;
45764;SDS011;31474;45.332;10.230;2022-09-17T09:08:33;0.38;;;0.20;;
45764;SDS011;31474;45.332;10.230;2022-09-17T09:11:12;0.50;;;0.22;;
45764;SDS011;31474;45.332;10.230;2022-09-17T09:13:44;0.80;;;0.43;;
45764;SDS011;31474;45.332;10.230;2022-09-17T09:16:18;0.25;;;0.10;;
45764;SDS011;31474;45.332;10.230;2022-09-17T09:18:47;0.73;;;0.30;;
45764;SDS011;31474;45.332;10.230;2022-09-17T09:21:28;0.40;;;0.20;;
45764;SDS011;31474;45.332;10.230;2022-09-17T09:34:38;1.88;;;0.40;;
45764;SDS011;31474;45.332;10.230;2022-09-17T09:37:13;2.20;;;0.30;;
45764;SDS011;31474;45.332;10.230;2022-09-17T09:39:52;0.57;;;0.20;;
45764;SDS011;31474;45.332;10.230;2022-09-17T09:44:48;3.20;;;0.20;;
45764;SDS011;31474;45.332;10.230;2022-09-17T09:50:10;0.82;;;0.20;;
45764;SDS011;31474;45.332;10.230;2022-09-17T09:58:58;0.52;;;0.20;;
45764;SDS011;31474;45.332;10.230;2022-09-17T10:01:15;1.23;;;0.10;;
45764;SDS011;31474;45.332;10.230;2022-09-17T10:03:44;0.25;;;0.20;;
45764;SDS011;31474;45.332;10.230;2022-09-17T10:06:12;0.30;;;0.20;;
45764;SDS011;31474;45.332;10.230;2022-09-17T10:09:24;1.85;;;0.20;;
45764;SDS011;31474;45.332;10.230;2022-09-17T10:11:28;0.20;;;0.20;;
45764;SDS011;31474;45.332;10.230;2022-09-17T10:16:43;0.75;;;0.57;;
45764;SDS011;31474;45.332;10.230;2022-09-17T10:19:15;0.20;;;0.20;;
45764;SDS011;31474;45.332;10.230;2022-09-17T10:21:44;0.50;;;0.50;;
45764;SDS011;31474;45.332;10.230;2022-09-17T10:24:29;0.17;;;0.17;;
45764;SDS011;31474;45.332;10.230;2022-09-17T10:27:02;0.30;;;0.20;;
45764;SDS011;31474;45.332;10.230;2022-09-17T10:29:36;0.30;;;0.20;;
45764;SDS011;31474;45.332;10.230;2022-09-17T10:32:12;0.90;;;0.40;;
45764;SDS011;31474;45.332;10.230;2022-09-17T10:34:40;0.30;;;0.20;;
45764;SDS011;31474;45.332;10.230;2022-09-17T10:42:44;0.40;;;0.20;;
45764;SDS011;31474;45.332;10.230;2022-09-17T10:45:23;0.20;;;0.20;;
45764;SDS011;31474;45.332;10.230;2022-09-17T10:47:50;0.30;;;0.20;;
45764;SDS011;31474;45.332;10.230;2022-09-17T10:50:17;0.20;;;0.20;;
45764;SDS011;31474;45.332;10.230;2022-09-17T10:52:55;0.20;;;0.10;;
45764;SDS011;31474;45.332;10.230;2022-09-17T10:55:30;1.10;;;0.22;;
45764;SDS011;31474;45.332;10.230;2022-09-17T11:09:25;0.63;;;0.20;;
45764;SDS011;31474;45.332;10.230;2022-09-17T11:12:20;0.47;;;0.30;;
45764;SDS011;31474;45.332;10.230;2022-09-17T11:37:00;0.20;;;0.20;;
45764;SDS011;31474;45.332;10.230;2022-09-17T11:39:35;0.20;;;0.20;;
45764;SDS011;31474;45.332;10.230;2022-09-17T11:42:09;0.52;;;0.30;;
45764;SDS011;31474;45.332;10.230;2022-09-17T11:47:43;0.65;;;0.20;;
45764;SDS011;31474;45.332;10.230;2022-09-17T11:50:19;0.20;;;0.17;;
45764;SDS011;31474;45.332;10.230;2022-09-17T11:55:22;0.20;;;0.20;;
45764;SDS011;31474;45.332;10.230;2022-09-17T11:57:50;0.20;;;0.10;;
45764;SDS011;31474;45.332;10.230;2022-09-17T12:00:21;0.30;;;0.25;;
45764;SDS011;31474;45.332;10.230;2022-09-17T12:03:00;0.20;;;0.20;;
45764;SDS011;31474;45.332;10.230;2022-09-17T12:05:42;0.10;;;0.10;;
45764;SDS011;31474;45.332;10.230;2022-09-17T12:08:14;0.65;;;0.10;;
45764;SDS011;31474;45.332;10.230;2022-09-17T12:11:11;0.35;;;0.10;;
45764;SDS011;31474;45.332;10.230;2022-09-17T12:16:31;0.20;;;0.10;;
45764;SDS011;31474;45.332;10.230;2022-09-17T12:19:07;0.30;;;0.20;;
45764;SDS011;31474;45.332;10.230;2022-09-17T12:21:41;0.98;;;0.13;;
45764;SDS011;31474;45.332;10.230;2022-09-17T12:24:23;0.40;;;0.22;;
45764;SDS011;31474;45.332;10.230;2022-09-17T12:26:58;0.10;;;0.10;;
45764;SDS011;31474;45.332;10.230;2022-09-17T12:29:38;0.20;;;0.10;;
45764;SDS011;31474;45.332;10.230;2022-09-17T12:32:26;0.38;;;0.20;;
45764;SDS011;31474;45.332;10.230;2022-09-17T12:46:18;0.30;;;0.20;;
45764;SDS011;31474;45.332;10.230;2022-09-17T12:52:19;1.25;;;0.20;;
45764;SDS011;31474;45.332;10.230;2022-09-17T12:54:53;0.52;;;0.22;;
45764;SDS011;31474;45.332;10.230;2022-09-17T12:57:43;0.15;;;0.15;;
45764;SDS011;31474;45.332;10.230;2022-09-17T13:00:13;0.40;;;0.30;;
45764;SDS011;31474;45.332;10.230;2022-09-17T13:16:39;0.45;;;0.20;;
45764;SDS011;31474;45.332;10.230;2022-09-17T13:25:00;0.47;;;0.20;;
45764;SDS011;31474;45.332;10.230;2022-09-17T13:27:35;0.50;;;0.20;;
45764;SDS011;31474;45.332;10.230;2022-09-17T13:30:06;0.40;;;0.30;;
45764;SDS011;31474;45.332;10.230;2022-09-17T13:35:36;0.20;;;0.20;;
45764;SDS011;31474;45.332;10.230;2022-09-17T13:42:53;0.80;;;0.30;;
45764;SDS011;31474;45.332;10.230;2022-09-17T13:45:32;1.25;;;0.52;;
45764;SDS011;31474;45.332;10.230;2022-09-17T13:48:22;0.98;;;0.20;;
45764;SDS011;31474;45.332;10.230;2022-09-17T13:50:49;0.55;;;0.25;;
45764;SDS011;31474;45.332;10.230;2022-09-17T13:53:16;0.43;;;0.20;;
45764;SDS011;31474;45.332;10.230;2022-09-17T14:21:56;0.90;;;0.40;;
45764;SDS011;31474;45.332;10.230;2022-09-17T14:27:02;0.50;;;0.30;;
45764;SDS011;31474;45.332;10.230;2022-09-17T14:35:28;0.20;;;0.20;;
45764;SDS011;31474;45.332;10.230;2022-09-17T14:38:11;0.25;;;0.20;;
45764;SDS011;31474;45.332;10.230;2022-09-17T14:40:45;0.40;;;0.25;;
45764;SDS011;31474;45.332;10.230;2022-09-17T14:43:15;0.63;;;0.30;;
45764;SDS011;31474;45.332;10.230;2022-09-17T14:45:50;0.40;;;0.30;;
45764;SDS011;31474;45.332;10.230;2022-09-17T14:48:33;0.60;;;0.30;;
45764;SDS011;31474;45.332;10.230;2022-09-17T14:51:20;1.52;;;0.43;;
45764;SDS011;31474;45.332;10.230;2022-09-17T14:56:33;0.30;;;0.20;;
45764;SDS011;31474;45.332;10.230;2022-09-17T14:59:50;1.50;;;0.30;;
45764;SDS011;31474;45.332;10.230;2022-09-17T15:01:58;1.08;;;0.40;;
45764;SDS011;31474;45.332;10.230;2022-09-17T15:04:25;0.35;;;0.25;;
45764;SDS011;31474;45.332;10.230;2022-09-17T15:06:52;1.50;;;0.40;;
45764;SDS011;31474;45.332;10.230;2022-09-17T15:09:31;0.50;;;0.30;;
45764;SDS011;31474;45.332;10.230;2022-09-17T15:11:57;0.20;;;0.20;;
45764;SDS011;31474;45.332;10.230;2022-09-17T15:14:28;0.45;;;0.35;;
45764;SDS011;31474;45.332;10.230;2022-09-17T15:16:55;2.10;;;0.40;;
45764;SDS011;31474;45.332;10.230;2022-09-17T15:21:57;0.60;;;0.43;;
45764;SDS011;31474;45.332;10.230;2022-09-17T15:24:48;0.52;;;0.22;;
45764;SDS011;31474;45.332;10.230;2022-09-17T15:27:22;0.93;;;0.30;;
45764;SDS011;31474;45.332;10.230;2022-09-17T15:29:56;0.38;;;0.20;;
45764;SDS011;31474;45.332;10.230;2022-09-17T15:32:27;0.57;;;0.30;;
45764;SDS011;31474;45.332;10.230;2022-09-17T15:35:27;0.80;;;0.77;;
45764;SDS011;31474;45.332;10.230;2022-09-17T15:37:58;1.15;;;0.52;;
45764;SDS011;31474;45.332;10.230;2022-09-17T15:43:02;1.00;;;0.40;;
45764;SDS011;31474;45.332;10.230;2022-09-17T15:45:46;0.70;;;0.40;;
45764;SDS011;31474;45.332;10.230;2022-09-17T15:48:54;0.10;;;0.10;;
45764;SDS011;31474;45.332;10.230;2022-09-17T15:51:03;0.68;;;0.38;;
45764;SDS011;31474;45.332;10.230;2022-09-17T15:53:31;1.50;;;0.40;;
45764;SDS011;31474;45.332;10.230;2022-09-17T15:58:30;2.72;;;0.40;;
45764;SDS011;31474;45.332;10.230;2022-09-17T16:08:46;0.70;;;0.40;;
45764;SDS011;31474;45.332;10.230;2022-09-17T16:11:29;0.77;;;0.45;;
45764;SDS011;31474;45.332;10.230;2022-09-17T16:13:56;1.10;;;0.45;;
45764;SDS011;31474;45.332;10.230;2022-09-17T16:16:41;0.30;;;0.30;;
45764;SDS011;31474;45.332;10.230;2022-09-17T16:19:08;0.63;;;0.35;;
45764;SDS011;31474;45.332;10.230;2022-09-17T16:21:34;0.60;;;0.30;;
45764;SDS011;31474;45.332;10.230;2022-09-17T16:24:00;0.52;;;0.28;;
45764;SDS011;31474;45.332;10.230;2022-09-17T16:26:35;1.33;;;0.30;;
45764;SDS011;31474;45.332;10.230;2022-09-17T16:29:02;0.43;;;0.30;;
45764;SDS011;31474;45.332;10.230;2022-09-17T16:31:31;2.03;;;0.40;;
45764;SDS011;31474;45.332;10.230;2022-09-17T16:33:57;0.30;;;0.30;;
45764;SDS011;31474;45.332;10.230;2022-09-17T16:36:24;1.85;;;0.60;;
45764;SDS011;31474;45.332;10.230;2022-09-17T16:38:51;0.75;;;0.43;;
45764;SDS011;31474;45.332;10.230;2022-09-17T16:41:16;1.05;;;0.32;;
45764;SDS011;31474;45.332;10.230;2022-09-17T16:43:42;0.55;;;0.40;;
45764;SDS011;31474;45.332;10.230;2022-09-17T16:46:08;2.08;;;0.43;;
45764;SDS011;31474;45.332;10.230;2022-09-17T16:48:35;1.55;;;0.50;;
45764;SDS011;31474;45.332;10.230;2022-09-17T16:51:10;1.13;;;0.50;;
45764;SDS011;31474;45.332;10.230;2022-09-17T16:53:37;0.40;;;0.40;;
45764;SDS011;31474;45.332;10.230;2022-09-17T16:56:10;0.88;;;0.77;;
45764;SDS011;31474;45.332;10.230;2022-09-17T16:58:38;0.52;;;0.30;;
45764;SDS011;31474;45.332;10.230;2022-09-17T17:01:07;0.98;;;0.40;;
45764;SDS011;31474;45.332;10.230;2022-09-17T17:03:34;0.77;;;0.50;;
45764;SDS011;31474;45.332;10.230;2022-09-17T17:06:00;1.08;;;0.50;;
45764;SDS011;31474;45.332;10.230;2022-09-17T17:08:27;0.70;;;0.63;;
45764;SDS011;31474;45.332;10.230;2022-09-17T17:10:55;0.68;;;0.40;;
45764;SDS011;31474;45.332;10.230;2022-09-17T17:13:20;1.45;;;0.50;;
45764;SDS011;31474;45.332;10.230;2022-09-17T17:15:46;0.88;;;0.40;;
45764;SDS011;31474;45.332;10.230;2022-09-17T17:18:11;1.85;;;0.35;;
45764;SDS011;31474;45.332;10.230;2022-09-17T17:20:37;1.15;;;0.70;;
45764;SDS011;31474;45.332;10.230;2022-09-17T17:23:03;0.98;;;0.63;;
45764;SDS011;31474;45.332;10.230;2022-09-17T17:25:28;0.60;;;0.50;;
45764;SDS011;31474;45.332;10.230;2022-09-17T17:27:55;0.63;;;0.40;;
45764;SDS011;31474;45.332;10.230;2022-09-17T17:30:21;1.02;;;0.60;;
45764;SDS011;31474;45.332;10.230;2022-09-17T17:32:50;1.17;;;0.60;;
45764;SDS011;31474;45.332;10.230;2022-09-17T17:35:17;1.13;;;0.50;;
45764;SDS011;31474;45.332;10.230;2022-09-17T17:37:44;1.27;;;0.60;;
45764;SDS011;31474;45.332;10.230;2022-09-17T17:40:09;1.05;;;0.40;;
45764;SDS011;31474;45.332;10.230;2022-09-17T17:42:36;2.75;;;0.73;;
45764;SDS011;31474;45.332;10.230;2022-09-17T17:45:08;0.63;;;0.43;;
45764;SDS011;31474;45.332;10.230;2022-09-17T17:47:34;2.25;;;0.55;;
45764;SDS011;31474;45.332;10.230;2022-09-17T17:50:00;2.72;;;0.50;;
45764;SDS011;31474;45.332;10.230;2022-09-17T17:52:26;0.55;;;0.50;;
45764;SDS011;31474;45.332;10.230;2022-09-17T17:54:52;0.90;;;0.63;;
45764;SDS011;31474;45.332;10.230;2022-09-17T17:57:17;1.55;;;0.77;;
45764;SDS011;31474;45.332;10.230;2022-09-17T17:59:43;1.30;;;0.98;;
45764;SDS011;31474;45.332;10.230;2022-09-17T18:02:09;2.67;;;1.58;;
45764;SDS011;31474;45.332;10.230;2022-09-17T18:04:35;3.22;;;1.65;;
45764;SDS011;31474;45.332;10.230;2022-09-17T18:07:01;2.70;;;1.60;;
45764;SDS011;31474;45.332;10.230;2022-09-17T18:09:27;2.60;;;1.40;;
45764;SDS011;31474;45.332;10.230;2022-09-17T18:11:53;2.45;;;1.40;;
45764;SDS011;31474;45.332;10.230;2022-09-17T18:14:19;4.90;;;1.88;;
45764;SDS011;31474;45.332;10.230;2022-09-17T18:16:44;5.10;;;1.75;;
45764;SDS011;31474;45.332;10.230;2022-09-17T18:19:10;2.88;;;1.20;;
45764;SDS011;31474;45.332;10.230;2022-09-17T18:21:36;5.82;;;1.48;;
45764;SDS011;31474;45.332;10.230;2022-09-17T18:24:02;3.15;;;1.05;;
45764;SDS011;31474;45.332;10.230;2022-09-17T18:26:28;1.35;;;0.93;;
45764;SDS011;31474;45.332;10.230;2022-09-17T18:28:55;1.65;;;0.98;;
45764;SDS011;31474;45.332;10.230;2022-09-17T18:31:23;1.83;;;1.00;;
45764;SDS011;31474;45.332;10.230;2022-09-17T18:38:59;2.30;;;1.50;;
45764;SDS011;31474;45.332;10.230;2022-09-17T18:41:29;2.72;;;1.42;;